Aérodrome :
LOGIN :

S'inscrire | Disclaimer

   EN    FR    IT 

 










Légende :    VFR   VFR Marginal   IFR   IFR Intensif   IFR Très Intensif
Visi : 
Plafond : 
>= 8 km
>= 3000ft
5 à 8 km
1000 à 3000 ft
1500m à 5 km
500 à 1000 ft
800 à 1500m
200 à 500 ft
< 800m
< 200 ft
Symboles :   Orages  Brouillard  Fortes neiges  Fortes précipitations  Vent > 20 kt
SIGMETs :   Divers  Orages  Givrage  Turbulence  Onde Orograph.  Cendres Volcan.






- Altitude de l'aérodrome : 74 ft
- Code IATA : LRH


LFBH - La Rochelle Ile de Ré

DERNIER METAR :
  • 190530Z AUTO 32007KT CAVOK 20/17 Q1018 NOSIG

METARs EXPIRÉS :
  • 190500Z AUTO 31008KT CAVOK 20/18 Q1018 NOSIG
  • 190430Z AUTO 30008KT CAVOK 20/18 Q1018 NOSIG
  • 190400Z AUTO 30007KT CAVOK 19/18 Q1018 NOSIG
  • 190330Z AUTO 31006KT CAVOK 19/17 Q1018 NOSIG
  • 190300Z AUTO 30006KT CAVOK 19/17 Q1018 NOSIG
  • 190230Z AUTO 31007KT CAVOK 20/17 Q1017 NOSIG
  • 190200Z AUTO 31007KT CAVOK 20/17 Q1017 NOSIG
  • 190130Z AUTO 31006KT CAVOK 20/17 Q1017 NOSIG
  • 190100Z AUTO 31006KT CAVOK 20/17 Q1018 NOSIG
  • 190030Z AUTO 31007KT CAVOK 20/17 Q1018 NOSIG

TAF TAF LFBH
Valide du 19 à 00h jusqu'au 20 à 00h UTC


182300Z 1900/1924 34008KT CAVOK
ATIS : +33 5 46 00 13 92



MET'MAP, la Météo Aéronautique d'un coup d'oeil ! - Copyright ORBIFLY Décembre 2007 - Disclaimer

ORBIFLY MET'MAP TEAM :

Programmation & Développement : Alexandra Zaïnal
Sur une idée originale de : Baudouin d'Aumeries
Soutien technique & logistique : Manuel Goepfert
Assistance : Marc-Olivier Méhu




SOURCES & CREDITS :

   NOAA